aviador You're here:

KBKX Decoded Metar

BROOKINGS in SD, USA
Report Time2017-07-24 15:56:00
UTC Time2017-07-24 16:34:20
Flight Rules unknown UNKNOWN
Wind140° at 10 kt
W.Decomp.*RWY 12: 9.7 kt HW 2.4 kt RCW
RWY 17: 8.1 kt HW 5.9 kt LCW
W.Rank140° ranks 4
Current wind is above 140° avg. (9.1)
VisibilityN/A
Phenomena:N/A
Clouds:N/A
Expected CloudBase > 2,400 ft AGL from Temp-Dew spread
CeilingNone
Temp22°C (ISA +10)
Dew Point16°C (69% RH)
AAT20.4°C
QNH1017 hPa
Density Alt2,953 ft
Elevation1,647 ft
Report Wrong Elevation
Raw Report
METAR KBKX 241556Z AUTO 14010KT CLR 22/16 A3002 RMK AO2 SLP172 T02220161
RVRNO $=

Extra information for KBKX:More info

Metar Taf Metar & Taf Last 4 Metars F.Rules Stats Wind Profile Meteogram Temp Stats Airport Information Weather charts Add Link Nearby VenuesMetar ALERT Operation Metar Decoded Social comments

AIRNAV info for KBKX